createdAt,value
2018-04-06T00:00:56.808Z,1006.01
2018-04-06T00:01:56.792Z,1005.99
2018-04-06T00:02:56.777Z,1005.94
2018-04-06T00:03:56.761Z,1005.94
2018-04-06T00:04:56.746Z,1005.93
2018-04-06T00:05:56.730Z,1005.95
2018-04-06T00:06:56.723Z,1005.96
2018-04-06T00:07:56.707Z,1006.00
2018-04-06T00:08:56.684Z,1005.96
2018-04-06T00:09:56.668Z,1005.99
2018-04-06T00:10:56.652Z,1005.97
2018-04-06T00:11:56.640Z,1005.94
2018-04-06T00:12:56.622Z,1005.94
2018-04-06T00:13:56.620Z,1005.91
2018-04-06T00:14:56.599Z,1005.89
2018-04-06T00:15:56.575Z,1005.87
2018-04-06T00:16:56.560Z,1005.89
2018-04-06T00:17:56.544Z,1005.90
2018-04-06T00:18:56.531Z,1005.88
2018-04-06T00:19:56.514Z,1005.86
2018-04-06T00:20:56.498Z,1005.86
2018-04-06T00:21:56.482Z,1005.85
2018-04-06T00:22:56.467Z,1005.85
2018-04-06T00:23:56.452Z,1005.86
2018-04-06T00:24:56.440Z,1005.84
2018-04-06T00:25:56.422Z,1005.85
2018-04-06T00:26:56.404Z,1005.86
2018-04-06T00:27:56.395Z,1005.83
2018-04-06T00:28:56.378Z,1005.81
2018-04-06T00:29:56.365Z,1005.84
2018-04-06T00:30:56.342Z,1005.76
2018-04-06T00:31:56.349Z,1005.78
2018-04-06T00:32:56.312Z,1005.78
2018-04-06T00:33:56.295Z,1005.74
2018-04-06T00:34:56.280Z,1005.73
2018-04-06T00:35:56.281Z,1005.73
2018-04-06T00:36:56.253Z,1005.72
2018-04-06T00:37:56.264Z,1005.72
2018-04-06T00:38:56.218Z,1005.72
2018-04-06T00:39:56.205Z,1005.77
2018-04-06T00:40:56.190Z,1005.76
2018-04-06T00:41:56.197Z,1005.77
2018-04-06T00:42:56.155Z,1005.76
2018-04-06T00:43:56.139Z,1005.76
2018-04-06T00:44:56.124Z,1005.81
2018-04-06T00:45:56.107Z,1005.78
2018-04-06T00:46:56.092Z,1005.78
2018-04-06T00:47:56.077Z,1005.78
2018-04-06T00:48:56.065Z,1005.78
2018-04-06T00:49:56.044Z,1005.85
2018-04-06T00:50:56.042Z,1005.80
2018-04-06T00:51:56.664Z,1005.78
2018-04-06T00:52:56.000Z,1005.77
2018-04-06T00:53:55.982Z,1005.71
2018-04-06T00:54:55.966Z,1005.67
2018-04-06T00:55:55.950Z,1005.69
2018-04-06T00:56:55.935Z,1005.68
2018-04-06T00:57:55.930Z,1005.67
2018-04-06T00:58:55.914Z,1005.63
2018-04-06T00:59:55.888Z,1005.65
2018-04-06T01:00:55.873Z,1005.66
2018-04-06T01:01:55.856Z,1005.66
2018-04-06T01:02:55.843Z,1005.65
2018-04-06T01:03:55.825Z,1005.67
2018-04-06T01:04:55.813Z,1005.65
2018-04-06T01:05:55.794Z,1005.61
2018-04-06T01:06:55.778Z,1005.69
2018-04-06T01:07:55.778Z,1005.70
2018-04-06T01:08:55.747Z,1005.69
2018-04-06T01:09:55.831Z,1005.69
2018-04-06T01:10:55.716Z,1005.72
2018-04-06T01:11:55.704Z,1005.71
2018-04-06T01:12:55.700Z,1005.70
2018-04-06T01:13:55.680Z,1005.67
2018-04-06T01:14:55.653Z,1005.69
2018-04-06T01:15:55.640Z,1005.68
2018-04-06T01:16:55.626Z,1005.68
2018-04-06T01:17:55.606Z,1005.69
2018-04-06T01:18:55.591Z,1005.67
2018-04-06T01:19:55.582Z,1005.68
2018-04-06T01:20:55.566Z,1005.68
2018-04-06T01:21:55.552Z,1005.69
2018-04-06T01:22:55.528Z,1005.70
2018-04-06T01:23:55.514Z,1005.67
2018-04-06T01:24:55.498Z,1005.67
2018-04-06T01:25:55.482Z,1005.64
2018-04-06T01:26:55.466Z,1005.63
2018-04-06T01:27:55.550Z,1005.71
2018-04-06T01:28:55.435Z,1005.70
2018-04-06T01:29:55.419Z,1005.69
2018-04-06T01:30:55.403Z,1005.68
2018-04-06T01:31:55.391Z,1005.64
2018-04-06T01:32:55.374Z,1005.67
2018-04-06T01:33:55.358Z,1005.70
2018-04-06T01:34:55.353Z,1005.68
2018-04-06T01:35:55.363Z,1005.70
2018-04-06T01:36:55.312Z,1005.71
2018-04-06T01:37:55.296Z,1005.64
2018-04-06T01:38:55.296Z,1005.64
2018-04-06T01:39:55.272Z,1005.63
2018-04-06T01:40:55.251Z,1005.63
2018-04-06T01:41:55.235Z,1005.62
2018-04-06T01:42:55.227Z,1005.63
2018-04-06T01:43:55.204Z,1005.62
2018-04-06T01:44:55.210Z,1005.64
2018-04-06T01:45:55.175Z,1005.60
2018-04-06T01:46:55.158Z,1005.58
2018-04-06T01:47:55.142Z,1005.58
2018-04-06T01:48:55.127Z,1005.56
2018-04-06T01:49:55.111Z,1005.51
2018-04-06T01:50:55.096Z,1005.52
2018-04-06T01:51:55.080Z,1005.52
2018-04-06T01:52:55.114Z,1005.45
2018-04-06T01:53:55.049Z,1005.52
2018-04-06T01:54:55.038Z,1005.48
2018-04-06T01:55:55.034Z,1005.51
2018-04-06T01:56:55.020Z,1005.50
2018-04-06T01:57:54.990Z,1005.54
2018-04-06T01:58:54.972Z,1005.53
2018-04-06T01:59:55.011Z,1005.53
2018-04-06T02:00:54.942Z,1005.56
2018-04-06T02:01:54.925Z,1005.54
2018-04-06T02:02:54.911Z,1005.54
2018-04-06T02:03:54.956Z,1005.51
2018-04-06T02:04:54.880Z,1005.53
2018-04-06T02:05:54.863Z,1005.50
2018-04-06T02:06:54.853Z,1005.54
2018-04-06T02:07:54.837Z,1005.55
2018-04-06T02:08:54.818Z,1005.55
2018-04-06T02:09:54.802Z,1005.57
2018-04-06T02:10:54.789Z,1005.56
2018-04-06T02:11:54.772Z,1005.52
2018-04-06T02:12:54.761Z,1005.52
2018-04-06T02:13:54.742Z,1005.50
2018-04-06T02:14:54.726Z,1005.47
2018-04-06T02:15:54.712Z,1005.45
2018-04-06T02:16:54.696Z,1005.43
2018-04-06T02:17:54.692Z,1005.47
2018-04-06T02:18:54.671Z,1005.49
2018-04-06T02:19:54.684Z,1005.48
2018-04-06T02:20:54.636Z,1005.51
2018-04-06T02:21:54.620Z,1005.50
2018-04-06T02:22:54.611Z,1005.50
2018-04-06T02:23:54.590Z,1005.52
2018-04-06T02:24:54.626Z,1005.51
2018-04-06T02:25:54.574Z,1005.51
2018-04-06T02:26:54.561Z,1005.47
2018-04-06T02:27:54.529Z,1005.47
2018-04-06T02:28:54.525Z,1005.44
2018-04-06T02:29:54.498Z,1005.47
2018-04-06T02:30:54.484Z,1005.48
2018-04-06T02:31:54.469Z,1005.47
2018-04-06T02:32:54.454Z,1005.50
2018-04-06T02:33:54.437Z,1005.46
2018-04-06T02:34:54.422Z,1005.47
2018-04-06T02:35:54.410Z,1005.49
2018-04-06T02:36:54.393Z,1005.52
2018-04-06T02:37:54.378Z,1005.46
2018-04-06T02:38:54.374Z,1005.45
2018-04-06T02:39:54.447Z,1005.48
2018-04-06T02:40:54.335Z,1005.49
2018-04-06T02:41:54.316Z,1005.53
2018-04-06T02:42:54.306Z,1005.51
2018-04-06T02:43:54.285Z,1005.45
2018-04-06T02:44:54.271Z,1005.49
2018-04-06T02:45:54.269Z,1005.48
2018-04-06T02:46:54.249Z,1005.48
2018-04-06T02:47:54.224Z,1005.50
2018-04-06T02:48:54.209Z,1005.44
2018-04-06T02:49:54.194Z,1005.42
2018-04-06T02:50:54.178Z,1005.40
2018-04-06T02:51:54.164Z,1005.41
2018-04-06T02:52:54.148Z,1005.40
2018-04-06T02:53:54.132Z,1005.36
2018-04-06T02:54:54.117Z,1005.37
2018-04-06T02:55:54.101Z,1005.41
2018-04-06T02:56:54.087Z,1005.39
2018-04-06T02:57:54.070Z,1005.38
2018-04-06T02:58:54.055Z,1005.33
2018-04-06T02:59:54.053Z,1005.35
2018-04-06T03:00:54.055Z,1005.35
2018-04-06T03:01:54.015Z,1005.33
2018-04-06T03:02:53.994Z,1005.35
2018-04-06T03:03:54.000Z,1005.33
2018-04-06T03:04:53.963Z,1005.35
2018-04-06T03:05:53.946Z,1005.33
2018-04-06T03:06:53.931Z,1005.34
2018-04-06T03:07:53.927Z,1005.33
2018-04-06T03:08:53.936Z,1005.30
2018-04-06T03:09:53.885Z,1005.30
2018-04-06T03:10:53.870Z,1005.24
2018-04-06T03:11:53.862Z,1005.22
2018-04-06T03:12:53.839Z,1005.22
2018-04-06T03:13:53.827Z,1005.17
2018-04-06T03:14:53.813Z,1005.24
2018-04-06T03:15:53.794Z,1005.23
2018-04-06T03:16:53.780Z,1005.22
2018-04-06T03:17:53.762Z,1005.24
2018-04-06T03:18:53.759Z,1005.23
2018-04-06T03:19:53.731Z,1005.19
2018-04-06T03:20:53.717Z,1005.16
2018-04-06T03:21:53.711Z,1005.14
2018-04-06T03:22:53.693Z,1005.11
2018-04-06T03:23:53.670Z,1005.13
2018-04-06T03:24:53.654Z,1005.11
2018-04-06T03:25:53.637Z,1005.12
2018-04-06T03:26:53.622Z,1005.09
2018-04-06T03:27:53.606Z,1005.10
2018-04-06T03:28:53.592Z,1005.08
2018-04-06T03:29:53.584Z,1005.11
2018-04-06T03:30:53.561Z,1005.11
2018-04-06T03:31:53.544Z,1005.07
2018-04-06T03:32:53.528Z,1005.06
2018-04-06T03:33:53.512Z,1005.05
2018-04-06T03:34:53.496Z,1005.03
2018-04-06T03:35:53.482Z,1005.05
2018-04-06T03:36:53.467Z,1005.08
2018-04-06T03:37:53.450Z,1005.13
2018-04-06T03:38:53.434Z,1005.12
2018-04-06T03:39:53.419Z,1005.11
2018-04-06T03:40:53.403Z,1005.11
2018-04-06T03:41:53.387Z,1005.06
2018-04-06T03:42:53.372Z,1005.07
2018-04-06T03:43:53.355Z,1005.06
2018-04-06T03:44:53.353Z,1005.05
2018-04-06T03:45:53.328Z,1005.05
2018-04-06T03:46:53.335Z,1005.01
2018-04-06T03:47:53.293Z,1005.05
2018-04-06T03:48:53.278Z,1005.04
2018-04-06T03:49:53.262Z,1005.02
2018-04-06T03:50:53.245Z,1005.03
2018-04-06T03:51:53.241Z,1005.03
2018-04-06T03:52:53.253Z,1005.03
2018-04-06T03:53:53.202Z,1005.00
2018-04-06T03:54:53.183Z,1004.99
2018-04-06T03:55:53.176Z,1004.98
2018-04-06T03:56:53.152Z,1004.96
2018-04-06T03:57:53.136Z,1004.93
2018-04-06T03:58:53.120Z,1004.94
2018-04-06T03:59:53.105Z,1004.98
2018-04-06T04:00:53.089Z,1004.98
2018-04-06T04:01:53.074Z,1004.96
2018-04-06T04:02:53.058Z,1004.96
2018-04-06T04:03:53.042Z,1004.98
2018-04-06T04:04:53.028Z,1004.97
2018-04-06T04:05:53.016Z,1004.97
2018-04-06T04:06:53.006Z,1004.95
2018-04-06T04:07:52.992Z,1004.93
2018-04-06T04:08:52.965Z,1004.93
2018-04-06T04:09:52.950Z,1004.89
2018-04-06T04:10:52.937Z,1004.91
2018-04-06T04:11:52.922Z,1004.89
2018-04-06T04:12:52.903Z,1004.90
2018-04-06T04:13:52.904Z,1004.90
2018-04-06T04:14:52.877Z,1004.93
2018-04-06T04:15:52.856Z,1004.93
2018-04-06T04:16:52.841Z,1004.99
2018-04-06T04:17:52.825Z,1004.98
2018-04-06T04:18:52.813Z,1004.97
2018-04-06T04:19:52.794Z,1004.94
2018-04-06T04:20:52.780Z,1004.98
2018-04-06T04:21:52.763Z,1005.02
2018-04-06T04:22:52.747Z,1005.02
2018-04-06T04:23:52.731Z,1005.01
2018-04-06T04:24:52.716Z,1005.02
2018-04-06T04:25:52.701Z,1004.98
2018-04-06T04:26:52.685Z,1004.97
2018-04-06T04:27:52.769Z,1004.92
2018-04-06T04:28:52.670Z,1004.94
2018-04-06T04:29:52.651Z,1004.93
2018-04-06T04:30:52.664Z,1004.86
2018-04-06T04:31:52.608Z,1004.91
2018-04-06T04:32:52.595Z,1004.86
2018-04-06T04:33:52.575Z,1004.84
2018-04-06T04:34:52.567Z,1004.83
2018-04-06T04:35:52.548Z,1004.84
2018-04-06T04:36:52.541Z,1004.83
2018-04-06T04:37:52.512Z,1004.88
2018-04-06T04:38:52.498Z,1004.85
2018-04-06T04:39:52.528Z,1004.86
2018-04-06T04:40:52.489Z,1004.89
2018-04-06T04:41:52.485Z,1004.87
2018-04-06T04:42:52.492Z,1004.89
2018-04-06T04:43:52.870Z,1004.88
2018-04-06T04:44:52.448Z,1004.87
2018-04-06T04:45:52.423Z,1004.84
2018-04-06T04:46:52.401Z,1004.81
2018-04-06T04:47:52.375Z,1004.78
2018-04-06T04:48:52.341Z,1004.80
2018-04-06T04:49:52.324Z,1004.74
2018-04-06T04:50:52.309Z,1004.72
2018-04-06T04:51:52.294Z,1004.69
2018-04-06T04:52:52.278Z,1004.72
2018-04-06T04:53:52.262Z,1004.70
2018-04-06T04:54:52.555Z,1004.70
2018-04-06T04:55:52.361Z,1004.75
2018-04-06T04:57:52.499Z,1004.75
2018-04-06T05:00:52.442Z,1004.66
2018-04-06T05:01:52.205Z,1004.67
2018-04-06T05:02:52.188Z,1004.69
2018-04-06T05:03:52.249Z,1004.70
2018-04-06T05:04:52.147Z,1004.66
2018-04-06T05:05:52.157Z,1004.66
2018-04-06T05:06:52.154Z,1004.65
2018-04-06T05:07:52.124Z,1004.63
2018-04-06T05:08:52.284Z,1004.63
2018-04-06T05:09:52.073Z,1004.66
2018-04-06T05:10:52.069Z,1004.62
2018-04-06T05:11:52.253Z,1004.62
2018-04-06T05:12:52.039Z,1004.63
2018-04-06T05:13:52.021Z,1004.65
2018-04-06T05:14:52.019Z,1004.66
2018-04-06T05:15:51.995Z,1004.66
2018-04-06T05:16:51.964Z,1004.66
2018-04-06T05:17:51.947Z,1004.65
2018-04-06T05:18:51.909Z,1004.67
2018-04-06T05:19:51.861Z,1004.68
2018-04-06T05:20:51.845Z,1004.63
2018-04-06T05:21:51.974Z,1004.61
2018-04-06T05:22:51.874Z,1004.58
2018-04-06T05:24:51.839Z,1004.63
2018-04-06T05:25:51.864Z,1004.60
2018-04-06T05:26:51.867Z,1004.63
2018-04-06T05:28:51.742Z,1004.64
2018-04-06T05:29:51.756Z,1004.66
2018-04-06T05:30:51.781Z,1004.67
2018-04-06T05:31:51.774Z,1004.69
2018-04-06T05:32:52.360Z,1004.61
2018-04-06T05:33:51.726Z,1004.65
2018-04-06T05:34:51.708Z,1004.64
2018-04-06T05:35:51.618Z,1004.62
2018-04-06T05:36:51.652Z,1004.67
2018-04-06T05:37:51.644Z,1004.68
2018-04-06T05:38:51.684Z,1004.69
2018-04-06T05:39:51.646Z,1004.72
2018-04-06T05:40:51.581Z,1004.74
2018-04-06T05:41:51.590Z,1004.78
2018-04-06T05:42:51.920Z,1004.75
2018-04-06T05:44:51.565Z,1004.71
2018-04-06T05:45:51.516Z,1004.67
2018-04-06T05:46:51.511Z,1004.61
2018-04-06T05:47:51.516Z,1004.60
2018-04-06T05:48:51.498Z,1004.58
2018-04-06T05:49:51.415Z,1004.62
2018-04-06T05:50:51.440Z,1004.61
2018-04-06T05:51:51.391Z,1004.52
2018-04-06T05:52:51.601Z,1004.56
2018-04-06T05:53:51.430Z,1004.51
2018-04-06T05:54:51.390Z,1004.55
2018-04-06T05:55:51.397Z,1004.50
2018-04-06T05:56:51.408Z,1004.54
2018-04-06T05:57:51.548Z,1004.52
2018-04-06T05:59:51.284Z,1004.55
2018-04-06T06:00:51.305Z,1004.56
2018-04-06T06:01:51.268Z,1004.49
2018-04-06T06:02:51.532Z,1004.46
2018-04-06T06:04:51.238Z,1004.40
2018-04-06T06:05:51.204Z,1004.39
2018-04-06T06:06:51.192Z,1004.36
2018-04-06T06:07:51.192Z,1004.41
2018-04-06T06:08:51.371Z,1004.36
2018-04-06T06:09:51.208Z,1004.39
2018-04-06T06:10:51.140Z,1004.40
2018-04-06T06:11:51.131Z,1004.43
2018-04-06T06:12:51.113Z,1004.39
2018-04-06T06:13:51.133Z,1004.35
2018-04-06T06:15:51.060Z,1004.37
2018-04-06T06:16:51.025Z,1004.38
2018-04-06T06:17:51.005Z,1004.34
2018-04-06T06:18:50.961Z,1004.26
2018-04-06T06:19:51.001Z,1004.27
2018-04-06T06:20:51.008Z,1004.24
2018-04-06T06:21:50.975Z,1004.15
2018-04-06T06:22:50.976Z,1004.11
2018-04-06T06:23:50.962Z,1004.07
2018-04-06T06:24:50.891Z,1004.07
2018-04-06T06:25:50.877Z,1004.03
2018-04-06T06:26:50.953Z,1004.00
2018-04-06T06:27:50.861Z,1004.05
2018-04-06T06:28:50.868Z,1004.03
2018-04-06T06:30:50.836Z,1003.98
2018-04-06T06:31:50.830Z,1003.89
2018-04-06T06:32:50.846Z,1003.89
2018-04-06T06:33:50.824Z,1003.83
2018-04-06T06:34:50.849Z,1003.84
2018-04-06T06:35:51.160Z,1003.86
2018-04-06T06:36:50.812Z,1003.87
2018-04-06T06:37:50.767Z,1003.84
2018-04-06T06:38:50.765Z,1003.85
2018-04-06T06:39:50.733Z,1003.92
2018-04-06T06:40:50.705Z,1003.92
2018-04-06T06:41:50.689Z,1004.02
2018-04-06T06:42:50.874Z,1003.93
2018-04-06T06:43:50.662Z,1004.00
2018-04-06T06:44:50.712Z,1003.99
2018-04-06T06:45:50.851Z,1004.00
2018-04-06T06:46:50.664Z,1004.02
2018-04-06T06:47:50.661Z,1004.02
2018-04-06T06:48:50.860Z,1004.03
2018-04-06T06:49:50.815Z,1004.05
2018-04-06T06:50:50.693Z,1004.04
2018-04-06T06:51:50.781Z,1004.03
2018-04-06T06:52:50.588Z,1004.04
2018-04-06T06:53:50.524Z,1004.06
2018-04-06T06:54:50.524Z,1004.06
2018-04-06T06:55:50.508Z,1004.08
2018-04-06T06:56:50.557Z,1004.07
2018-04-06T06:57:50.457Z,1004.01
2018-04-06T06:58:50.469Z,1003.94
2018-04-06T06:59:50.474Z,1003.90
2018-04-06T07:00:50.418Z,1003.97
2018-04-06T07:01:50.357Z,1003.88
2018-04-06T07:02:50.387Z,1003.79
2018-04-06T07:03:50.428Z,1003.82
2018-04-06T07:04:50.347Z,1003.81
2018-04-06T07:05:50.325Z,1003.85
2018-04-06T07:07:50.360Z,1003.85
2018-04-06T07:08:50.550Z,1003.80
2018-04-06T07:09:50.544Z,1003.78
2018-04-06T07:10:50.310Z,1003.78
2018-04-06T07:12:50.316Z,1003.76
2018-04-06T07:13:50.279Z,1003.69
2018-04-06T07:14:50.265Z,1003.71
2018-04-06T07:15:50.238Z,1003.72
2018-04-06T07:16:50.414Z,1003.68
2018-04-06T07:17:50.211Z,1003.62
2018-04-06T07:18:50.205Z,1003.61
2018-04-06T07:19:50.194Z,1003.64
2018-04-06T07:20:50.105Z,1003.68
2018-04-06T07:21:50.803Z,1003.69
2018-04-06T07:22:50.196Z,1003.68
2018-04-06T07:23:50.116Z,1003.63
2018-04-06T07:24:50.096Z,1003.72
2018-04-06T07:25:50.046Z,1003.69
2018-04-06T07:26:50.119Z,1003.75
2018-04-06T07:27:50.124Z,1003.69
2018-04-06T07:28:50.104Z,1003.65
2018-04-06T07:29:50.040Z,1003.73
2018-04-06T07:30:50.043Z,1003.66
2018-04-06T07:31:49.967Z,1003.62
2018-04-06T07:32:50.031Z,1003.63
2018-04-06T07:33:49.998Z,1003.65
2018-04-06T07:34:49.938Z,1003.61
2018-04-06T07:35:49.980Z,1003.63
2018-04-06T07:36:49.999Z,1003.69
2018-04-06T07:37:50.035Z,1003.70
2018-04-06T07:38:49.951Z,1003.68
2018-04-06T07:39:49.917Z,1003.69
2018-04-06T07:40:50.014Z,1003.68
2018-04-06T07:41:49.983Z,1003.69
2018-04-06T07:42:49.953Z,1003.63
2018-04-06T07:43:49.887Z,1003.71
2018-04-06T07:44:49.911Z,1003.63
2018-04-06T07:45:49.882Z,1003.66
2018-04-06T07:46:49.905Z,1003.73
2018-04-06T07:47:49.854Z,1003.73
2018-04-06T07:48:49.878Z,1003.72
2018-04-06T07:50:50.391Z,1003.79
2018-04-06T07:51:49.858Z,1003.76
2018-04-06T07:52:49.853Z,1003.80
2018-04-06T07:54:49.874Z,1003.81
2018-04-06T07:55:49.856Z,1003.78
2018-04-06T07:56:49.865Z,1003.76
2018-04-06T07:58:49.826Z,1003.75
2018-04-06T07:59:49.839Z,1003.74
2018-04-06T08:00:49.838Z,1003.73
2018-04-06T08:01:49.869Z,1003.74
2018-04-06T08:02:49.862Z,1003.73
2018-04-06T08:03:49.868Z,1003.65
2018-04-06T08:05:49.837Z,1003.61
2018-04-06T08:06:49.826Z,1003.59
2018-04-06T08:07:50.026Z,1003.60
2018-04-06T08:09:49.768Z,1003.52
2018-04-06T08:10:49.813Z,1003.54
2018-04-06T08:11:50.048Z,1003.54
2018-04-06T08:12:50.015Z,1003.47
2018-04-06T08:13:50.042Z,1003.51
2018-04-06T08:14:49.802Z,1003.42
2018-04-06T08:15:49.832Z,1003.39
2018-04-06T08:16:49.771Z,1003.43
2018-04-06T08:17:49.767Z,1003.37
2018-04-06T08:18:49.987Z,1003.38
2018-04-06T08:19:49.806Z,1003.39
2018-04-06T08:20:49.841Z,1003.39
2018-04-06T08:21:49.984Z,1003.40
2018-04-06T08:22:49.783Z,1003.34
2018-04-06T08:23:49.954Z,1003.37
2018-04-06T08:24:49.782Z,1003.37
2018-04-06T08:25:49.775Z,1003.34
2018-04-06T08:26:49.842Z,1003.31
2018-04-06T08:27:49.789Z,1003.34
2018-04-06T08:29:49.829Z,1003.33
2018-04-06T08:30:49.817Z,1003.36
2018-04-06T08:31:49.777Z,1003.37
2018-04-06T08:32:49.839Z,1003.35
2018-04-06T08:33:49.783Z,1003.35
2018-04-06T08:34:49.762Z,1003.27
2018-04-06T08:35:49.787Z,1003.26
2018-04-06T08:36:49.765Z,1003.29
2018-04-06T08:37:49.786Z,1003.27
2018-04-06T08:38:49.792Z,1003.34
2018-04-06T08:39:49.821Z,1003.30
2018-04-06T08:41:49.791Z,1003.24
2018-04-06T08:42:49.737Z,1003.23
2018-04-06T08:43:49.835Z,1003.27
2018-04-06T08:44:49.767Z,1003.23
2018-04-06T08:45:49.777Z,1003.22
2018-04-06T08:46:49.819Z,1003.24
2018-04-06T08:47:49.766Z,1003.11
2018-04-06T08:48:49.815Z,1003.20
2018-04-06T08:49:49.938Z,1003.14
2018-04-06T08:50:49.840Z,1003.24
2018-04-06T08:51:49.784Z,1003.19
2018-04-06T08:52:49.770Z,1003.29
2018-04-06T08:54:49.992Z,1003.32
2018-04-06T08:55:49.841Z,1003.37
2018-04-06T08:56:49.870Z,1003.39
2018-04-06T08:57:49.799Z,1003.30
2018-04-06T08:58:49.773Z,1003.29
2018-04-06T08:59:50.015Z,1003.28
2018-04-06T09:00:49.811Z,1003.34
2018-04-06T09:01:49.807Z,1003.40
2018-04-06T09:03:49.986Z,1003.39
2018-04-06T09:04:49.798Z,1003.37
2018-04-06T09:05:50.032Z,1003.41
2018-04-06T09:06:49.865Z,1003.37
2018-04-06T09:07:50.027Z,1003.39
2018-04-06T09:08:49.851Z,1003.36
2018-04-06T09:09:51.198Z,1003.36
2018-04-06T09:10:50.026Z,1003.52
2018-04-06T09:11:49.858Z,1003.43
2018-04-06T09:12:49.818Z,1003.39
2018-04-06T09:13:49.822Z,1003.39
2018-04-06T09:14:49.849Z,1003.36
2018-04-06T09:15:49.839Z,1003.40
2018-04-06T09:16:50.026Z,1003.40
2018-04-06T09:17:49.813Z,1003.37
2018-04-06T09:18:49.866Z,1003.41
2018-04-06T09:19:49.835Z,1003.45
2018-04-06T09:20:49.818Z,1003.38
2018-04-06T09:21:49.840Z,1003.36
2018-04-06T09:22:49.874Z,1003.48
2018-04-06T09:23:49.846Z,1003.44
2018-04-06T09:24:49.827Z,1003.48
2018-04-06T09:25:49.872Z,1003.39
2018-04-06T09:26:50.070Z,1003.44
2018-04-06T09:27:50.286Z,1003.39
2018-04-06T09:28:49.860Z,1003.33
2018-04-06T09:29:49.868Z,1003.34
2018-04-06T09:30:49.851Z,1003.33
2018-04-06T09:31:49.859Z,1003.34
2018-04-06T09:32:49.821Z,1003.28
2018-04-06T09:33:49.877Z,1003.45
2018-04-06T09:34:49.845Z,1003.29
2018-04-06T09:35:49.852Z,1003.36
2018-04-06T09:36:49.850Z,1003.33
2018-04-06T09:37:49.845Z,1003.34
2018-04-06T09:38:49.859Z,1003.32
2018-04-06T09:39:49.866Z,1003.28
2018-04-06T09:40:49.868Z,1003.31
2018-04-06T09:41:49.845Z,1003.30
2018-04-06T09:42:49.859Z,1003.26
2018-04-06T09:43:49.859Z,1003.27
2018-04-06T09:44:49.870Z,1003.27
2018-04-06T09:45:49.873Z,1003.23
2018-04-06T09:46:49.873Z,1003.19
2018-04-06T09:47:49.905Z,1003.22
2018-04-06T09:48:49.929Z,1003.19
2018-04-06T09:49:50.128Z,1003.19
2018-04-06T09:50:50.088Z,1003.10
2018-04-06T09:51:49.984Z,1003.15
2018-04-06T09:52:49.921Z,1003.23
2018-04-06T09:53:49.917Z,1003.20
2018-04-06T09:54:49.976Z,1003.16
2018-04-06T09:55:49.995Z,1003.14
2018-04-06T09:56:49.983Z,1003.15
2018-04-06T09:57:49.996Z,1003.25
2018-04-06T09:58:49.992Z,1003.18
2018-04-06T09:59:49.935Z,1003.13
2018-04-06T10:00:50.127Z,1003.17
2018-04-06T10:01:49.956Z,1003.13
2018-04-06T10:02:49.989Z,1003.09
2018-04-06T10:03:49.991Z,1003.09
2018-04-06T10:04:50.039Z,1003.05
2018-04-06T10:05:49.985Z,1003.08
2018-04-06T10:06:50.004Z,1003.04
2018-04-06T10:07:49.969Z,1003.03
2018-04-06T10:08:49.976Z,1003.01
2018-04-06T10:09:50.062Z,1002.99
2018-04-06T10:10:50.100Z,1002.98
2018-04-06T10:11:50.263Z,1003.01
2018-04-06T10:12:50.016Z,1002.99
2018-04-06T10:13:50.246Z,1002.93
2018-04-06T10:15:50.214Z,1002.94
2018-04-06T10:16:50.067Z,1002.93
2018-04-06T10:17:50.109Z,1002.92
2018-04-06T10:18:50.291Z,1003.01
2018-04-06T10:19:50.125Z,1002.92
2018-04-06T10:20:50.114Z,1002.86
2018-04-06T10:21:50.120Z,1002.87
2018-04-06T10:22:50.306Z,1002.90
2018-04-06T10:23:50.046Z,1002.88
2018-04-06T10:24:50.131Z,1002.88
2018-04-06T10:25:50.118Z,1002.93
2018-04-06T10:26:50.141Z,1002.77
2018-04-06T10:27:50.142Z,1002.83
2018-04-06T10:28:50.142Z,1002.81
2018-04-06T10:29:50.134Z,1002.78
2018-04-06T10:30:50.226Z,1002.74
2018-04-06T10:31:50.136Z,1002.82
2018-04-06T10:32:50.194Z,1002.79
2018-04-06T10:33:50.145Z,1002.79
2018-04-06T10:34:50.230Z,1002.88
2018-04-06T10:35:50.168Z,1002.71
2018-04-06T10:36:50.183Z,1002.81
2018-04-06T10:37:50.188Z,1002.79
2018-04-06T10:38:50.147Z,1002.70
2018-04-06T10:39:50.256Z,1002.71
2018-04-06T10:40:50.225Z,1002.68
2018-04-06T10:41:50.200Z,1002.64
2018-04-06T10:42:50.600Z,1002.72
2018-04-06T10:43:50.450Z,1002.68
2018-04-06T10:44:50.239Z,1002.72
2018-04-06T10:45:50.437Z,1002.63
2018-04-06T10:46:50.316Z,1002.58
2018-04-06T10:47:50.267Z,1002.57
2018-04-06T10:48:50.262Z,1002.58
2018-04-06T10:49:50.260Z,1002.49
2018-04-06T10:50:50.256Z,1002.40
2018-04-06T10:51:50.464Z,1002.41
2018-04-06T10:52:50.268Z,1002.49
2018-04-06T10:53:50.295Z,1002.46
2018-04-06T10:54:50.294Z,1002.47
2018-04-06T10:55:50.314Z,1002.44
2018-04-06T10:56:50.363Z,1002.42
2018-04-06T10:57:50.269Z,1002.41
2018-04-06T10:58:50.318Z,1002.40
2018-04-06T10:59:50.325Z,1002.38
2018-04-06T11:00:50.351Z,1002.29
2018-04-06T11:01:50.287Z,1002.23
2018-04-06T11:02:50.330Z,1002.21
2018-04-06T11:03:50.314Z,1002.20
2018-04-06T11:04:50.373Z,1002.19
2018-04-06T11:05:50.388Z,1002.25
2018-04-06T11:06:50.382Z,1002.13
2018-04-06T11:07:50.328Z,1002.10
2018-04-06T11:08:50.391Z,1002.06
2018-04-06T11:09:50.368Z,1002.03
2018-04-06T11:10:50.347Z,1002.01
2018-04-06T11:11:50.392Z,1001.90
2018-04-06T11:12:50.598Z,1002.02
2018-04-06T11:13:50.406Z,1001.98
2018-04-06T11:14:50.550Z,1001.94
2018-04-06T11:15:50.352Z,1001.91
2018-04-06T11:16:50.438Z,1002.01
2018-04-06T11:17:50.440Z,1001.95
2018-04-06T11:19:50.400Z,1001.94
2018-04-06T11:20:50.436Z,1001.91
2018-04-06T11:21:50.448Z,1001.90
2018-04-06T11:22:50.449Z,1001.87
2018-04-06T11:23:50.401Z,1001.85
2018-04-06T11:24:50.400Z,1001.82
2018-04-06T11:25:50.465Z,1001.82
2018-04-06T11:26:50.478Z,1001.89
2018-04-06T11:27:50.484Z,1001.77
2018-04-06T11:28:50.419Z,1001.85
2018-04-06T11:29:50.422Z,1001.82
2018-04-06T11:30:50.430Z,1001.79
2018-04-06T11:31:50.435Z,1001.85
2018-04-06T11:32:50.437Z,1001.81
2018-04-06T11:33:50.440Z,1001.77
2018-04-06T11:34:50.445Z,1001.70
2018-04-06T11:35:50.456Z,1001.78
2018-04-06T11:36:50.453Z,1001.71
2018-04-06T11:37:50.488Z,1001.73
2018-04-06T11:38:50.459Z,1001.71
2018-04-06T11:39:50.476Z,1001.63
2018-04-06T11:40:50.468Z,1001.70
2018-04-06T11:41:50.473Z,1001.61
2018-04-06T11:42:50.495Z,1001.70
2018-04-06T11:43:50.482Z,1001.63
2018-04-06T11:44:50.480Z,1001.66
2018-04-06T11:45:50.480Z,1001.60
2018-04-06T11:46:50.489Z,1001.61
2018-04-06T11:47:50.488Z,1001.55
2018-04-06T11:48:50.529Z,1001.60
2018-04-06T11:49:50.504Z,1001.52
2018-04-06T11:50:50.501Z,1001.49
2018-04-06T11:51:50.502Z,1001.52
2018-04-06T11:52:50.515Z,1001.51
2018-04-06T11:53:50.509Z,1001.50
2018-04-06T11:55:50.533Z,1001.46
2018-04-06T11:56:50.522Z,1001.53
2018-04-06T11:57:50.524Z,1001.56
2018-04-06T11:58:50.529Z,1001.43
2018-04-06T11:59:50.599Z,1001.44
2018-04-06T12:00:50.536Z,1001.44
2018-04-06T12:01:50.542Z,1001.47
2018-04-06T12:02:50.547Z,1001.37
2018-04-06T12:03:50.548Z,1001.38
2018-04-06T12:04:50.553Z,1001.35
2018-04-06T12:05:50.555Z,1001.33
2018-04-06T12:06:50.601Z,1001.28
2018-04-06T12:07:50.608Z,1001.19
2018-04-06T12:08:50.568Z,1001.15
2018-04-06T12:09:50.572Z,1001.16
2018-04-06T12:10:50.576Z,1001.15
2018-04-06T12:11:50.580Z,1001.18
2018-04-06T12:12:50.585Z,1001.13
2018-04-06T12:13:50.659Z,1001.06
2018-04-06T12:15:50.625Z,1001.02
2018-04-06T12:16:50.606Z,1000.95
2018-04-06T12:17:50.608Z,1000.95
2018-04-06T12:18:50.608Z,1000.97
2018-04-06T12:19:50.614Z,1000.94
2018-04-06T12:20:50.617Z,1000.97
2018-04-06T12:21:50.620Z,1000.95
2018-04-06T12:22:50.674Z,1000.95
2018-04-06T12:23:50.642Z,1000.89
2018-04-06T12:24:50.634Z,1000.94
2018-04-06T12:25:50.635Z,1000.90
2018-04-06T12:26:50.641Z,1000.97
2018-04-06T12:27:50.647Z,1000.87
2018-04-06T12:28:50.713Z,1000.86
2018-04-06T12:29:50.652Z,1000.80
2018-04-06T12:30:50.755Z,1000.87